Central Coast CX #1

Cyclocross: Sunday Aug. 27, 2017 – Schedule
Part of the 2017-18 CCCX Cyclocross Series

Results: Group B

Men B

Place # First Last City Cat Team License Age Laps @ Time Points
1 11 Alex AKINS Monterey, CA 4 0504096 15 7 @ 00:50:58 50
2 14 Nathan DAVIS Marina, CA 5 0513636 16 7 @ 00:50:59 47
3 2 Matthew WHITBY Stanford, CA 5 0459226 28 7 @ 00:54:15 45
4 56 David REECKMANN San Francisco, CA 3 0518167 32 7 @ 00:54:19 44
5 13 Gene SELKOV 5 Spokesman 8888106 7 @ 00:56:19 43
6 8 Peter AMBIEL Los Altos, CA 5 SunPower Racing 0509523 24 7 @ 00:56:25 42
7 57 Alan BARBARAN 5 King Kog Oakland 8888105 7 @ 00:56:42 41
8 3 Grant HEURING Fresno, CA 5 ACADEMY 0496677 16 7 @ 00:58:00 40
9 9 Wayne VANAMAN Emeryville, CA 5 King Kog 0468213 34 7 @ 00:58:38 39
10 52 TENZIN WANGZOR Point Richmond, CA 5 0522705 33 5 @ 00:51:34 38
11 7 Tyler ELLIOT 5 541431 6 @ 00:52:45 37
12 1 McKay KINSEY Fresno, CA 5 ACADEMY 0423654 14 6 @ 00:54:04 36
13 50 Nicholas ARCHER Clovis, CA 5 ACADEMY 0523582 16 6 @ 00:54:36 35
DNP 12 Ronnie GARCIA 5 8888110 - 1
DNP 53 Nehemias CEDILLO 5 Sunnyside Bicycles 8888102 - 1
Field: 15 of 99

Masters Men 35+ B

Place # First Last City Cat Team License Age Laps @ Time Points
1 352 David PORTER San Jose, CA 5 Pen Velo Racing/Summit Bicycles 0126711 44 7 @ 00:55:30 50
2 350 Robert SHAW Altadena, CA 3 Portland Bicycle Studio 0244034 38 7 @ 00:55:53 47
3 306 Jeff BILODEAU Brentwood, CA 3 CBRE Racing 0305630 41 7 @ 00:57:17 45
4 307 Pablo VIRAMONTES Campbell, CA 5 0459938 38 7 @ 00:51:11 44
Field: 4 of 100

Masters Men 45+ B

Place # First Last City Cat Team License Age Laps @ Time Points
1 607 Warren MARSHALL Gilroy, CA 5 The Fast Forward 0493425 51 7 @ 00:53:17 50
2 603 Jim ATKINSON Los Gatos, CA 5 0517134 55 7 @ 00:53:35 47
3 600 JASON NEARN Fresno, CA 3 ACADEMY 0367019 46 7 @ 00:54:09 45
4 651 Shon GRABBE San Jose, CA 3 0141499 47 7 @ 00:54:47 44
5 605 Ray MENDOZA 5 24025 7 @ 00:55:25 43
6 650 Brian GOKEY San Jose, CA 4 0392565 45 7 @ 00:58:31 42
7 602 Scott ZAVACK Morgan Hill, CA 4 0226979 50 7 @ 00:59:34 41
8 604 Boris FOELSCH 5 360394 6 @ 00:50:32 40
9 656 Justin MORGAN Fresno, CA 3 ACADEMY 0238135 44 6 @ 00:51:39 39
10 653 Thomas SWITZER San Mateo, CA 4 Pen Velo Racing/Summit Bicycles 0053912 47 6 @ 00:51:43 38
11 655 Shawn VARNER Templeton, CA 4 ChristianCycling Colorado 0096154 48 6 @ 00:53:37 37
12 654 Michael LOFTESNES Martinez, CA 4 0053118 52 7 @ 00:53:44 36
13 652 John BONO Santa Cruz, CA 4 0303921 49 6 @ 00:55:08 35
14 606 David O'BRIEN Sunnyvale, CA 4 SunPower Racing 0393237 50 6 @ 00:56:31 34
15 601 Paul YOUNG 3 The Fast Forward 378462 49 6 @ 00:59:39 33
Field: 15 of 100

Single Speed Men B

Place # First Last City Cat Team License Age Laps @ Time Points
1 201 Jason PRATER Oakland, CA 3 RMRC p/b Turin Bicycles 0244064 34 7 @ 00:56:13 50
2 250 Brian FERRARIO San Jose, CA 3 0088248 51 7 @ 00:58:12 47
3 251 Brian SMALLEY 5 381079 7 @ 00:58:30 45
4 252 Jose FRANCIS 5 Team Crash 8888107 6 @ 00:52:20 44
5 202 Kevin PELLEY Salinas, CA 5 0206394 28 6 @ 00:53:33 43
DNP 254 Gabriel DUMPIAS 5 King Kog 8888108 - 1
Field: 6 of 100
Table notes: